createdAt,value
2023-03-22T00:00:45.998Z,14.00
2023-03-22T00:03:32.141Z,9.20
2023-03-22T00:06:18.990Z,9.80
2023-03-22T00:09:05.400Z,8.90
2023-03-22T00:11:52.005Z,8.30
2023-03-22T00:14:38.759Z,8.60
2023-03-22T00:17:26.914Z,15.80
2023-03-22T00:20:13.736Z,7.80
2023-03-22T00:23:00.807Z,7.70
2023-03-22T00:25:48.178Z,9.10
2023-03-22T00:28:35.715Z,10.40
2023-03-22T00:31:22.332Z,9.40
2023-03-22T00:34:09.227Z,10.40
2023-03-22T00:36:55.684Z,8.80
2023-03-22T00:39:42.504Z,10.10
2023-03-22T00:42:28.930Z,10.20
2023-03-22T00:45:15.596Z,11.90
2023-03-22T00:48:02.074Z,11.30
2023-03-22T00:50:48.813Z,11.30
2023-03-22T00:53:41.102Z,11.40
2023-03-22T00:56:29.250Z,10.60
2023-03-22T00:59:23.766Z,11.70
2023-03-22T01:02:14.084Z,13.10
2023-03-22T01:05:00.280Z,12.40
2023-03-22T01:07:50.034Z,13.30
2023-03-22T01:10:38.618Z,13.10
2023-03-22T01:13:25.243Z,12.40
2023-03-22T01:16:11.570Z,12.30
2023-03-22T01:18:58.571Z,12.40
2023-03-22T01:21:45.408Z,12.80
2023-03-22T01:24:32.428Z,13.90
2023-03-22T01:27:18.699Z,13.10
2023-03-22T01:30:06.636Z,14.80
2023-03-22T01:32:53.291Z,12.80
2023-03-22T01:35:39.748Z,13.70
2023-03-22T01:38:27.061Z,14.30
2023-03-22T01:41:17.148Z,14.00
2023-03-22T01:44:12.093Z,13.50
2023-03-22T01:46:58.662Z,10.70
2023-03-22T01:49:45.529Z,13.50
2023-03-22T01:52:31.767Z,13.00
2023-03-22T01:55:25.452Z,12.20
2023-03-22T01:58:37.459Z,13.50
2023-03-22T02:01:25.251Z,11.70
2023-03-22T02:04:22.862Z,13.80
2023-03-22T02:07:15.306Z,14.20
2023-03-22T02:10:03.525Z,13.40
2023-03-22T02:13:50.179Z,13.20
2023-03-22T02:17:59.157Z,11.40
2023-03-22T02:21:26.708Z,11.40
2023-03-22T02:25:05.837Z,10.70
2023-03-22T02:28:28.957Z,11.00
2023-03-22T02:31:49.162Z,10.40
2023-03-22T02:35:16.143Z,11.80
2023-03-22T02:38:26.578Z,11.30
2023-03-22T02:42:06.990Z,12.50
2023-03-22T02:45:04.726Z,11.20
2023-03-22T02:48:28.008Z,12.20
2023-03-22T02:51:23.927Z,11.70
2023-03-22T02:54:23.485Z,12.70
2023-03-22T02:57:20.193Z,12.20
2023-03-22T03:00:10.818Z,11.50
2023-03-22T03:03:10.539Z,13.50
2023-03-22T03:06:05.420Z,12.20
2023-03-22T03:08:57.363Z,14.10
2023-03-22T03:11:53.397Z,14.90
2023-03-22T03:14:40.330Z,14.70
2023-03-22T03:18:08.119Z,14.60
2023-03-22T03:21:50.568Z,14.60
2023-03-22T03:24:47.863Z,14.10
2023-03-22T03:27:49.192Z,12.70
2023-03-22T03:30:51.341Z,15.70
2023-03-22T03:33:47.767Z,15.30
2023-03-22T03:36:40.307Z,15.30
2023-03-22T03:39:32.716Z,14.40
2023-03-22T03:42:22.089Z,15.60
2023-03-22T03:45:09.744Z,18.00
2023-03-22T03:48:03.384Z,15.40
2023-03-22T03:50:53.493Z,17.70
2023-03-22T03:53:40.117Z,16.40
2023-03-22T03:56:26.818Z,15.70
2023-03-22T03:59:18.509Z,18.50
2023-03-22T04:02:06.207Z,18.10
2023-03-22T04:04:52.692Z,16.20
2023-03-22T04:07:39.718Z,18.10
2023-03-22T04:10:26.406Z,17.90
2023-03-22T04:13:12.785Z,19.80
2023-03-22T04:16:01.466Z,14.80
2023-03-22T04:18:50.803Z,16.00
2023-03-22T04:21:37.386Z,17.60
2023-03-22T04:24:23.948Z,16.80
2023-03-22T04:27:10.808Z,17.10
2023-03-22T04:30:19.715Z,19.50
2023-03-22T04:33:31.921Z,16.70
2023-03-22T04:36:38.814Z,20.10
2023-03-22T04:39:40.954Z,15.10
2023-03-22T04:42:50.745Z,17.60
2023-03-22T04:45:46.247Z,17.00
2023-03-22T04:48:40.817Z,16.70
2023-03-22T04:51:29.935Z,18.10
2023-03-22T04:54:42.348Z,18.60
2023-03-22T04:57:29.002Z,17.70
2023-03-22T05:00:17.995Z,16.90
2023-03-22T05:03:05.175Z,17.30
2023-03-22T05:06:07.522Z,16.50
2023-03-22T05:09:08.160Z,16.40
2023-03-22T05:11:55.217Z,16.90
2023-03-22T05:15:00.405Z,17.70
2023-03-22T05:17:50.349Z,17.20
2023-03-22T05:20:37.132Z,14.30
2023-03-22T05:23:36.534Z,12.90
2023-03-22T05:26:27.254Z,12.20
2023-03-22T05:29:14.084Z,15.90
2023-03-22T05:32:24.990Z,13.70
2023-03-22T05:35:13.503Z,14.80
2023-03-22T05:38:05.664Z,14.50
2023-03-22T05:40:54.106Z,15.30
2023-03-22T05:43:41.626Z,15.40
2023-03-22T05:46:29.907Z,14.40
2023-03-22T05:49:46.388Z,13.60
2023-03-22T05:52:32.738Z,14.40
2023-03-22T05:55:42.386Z,13.80
2023-03-22T05:58:31.096Z,14.80
2023-03-22T06:01:19.755Z,13.80
2023-03-22T06:04:06.258Z,13.60
2023-03-22T06:07:18.824Z,14.90
2023-03-22T06:10:13.968Z,15.50
2023-03-22T06:13:00.889Z,13.40
2023-03-22T06:15:49.414Z,15.00
2023-03-22T06:18:42.450Z,14.30
2023-03-22T06:21:30.933Z,14.10
2023-03-22T06:24:17.496Z,15.30
2023-03-22T06:27:05.979Z,13.80
2023-03-22T06:29:54.216Z,14.30
2023-03-22T06:32:42.996Z,15.30
2023-03-22T06:35:29.811Z,16.50
2023-03-22T06:38:16.838Z,15.60
2023-03-22T06:41:04.249Z,15.00
2023-03-22T06:43:50.751Z,15.90
2023-03-22T06:46:55.981Z,15.90
2023-03-22T06:50:01.273Z,14.60
2023-03-22T06:53:01.178Z,16.80
2023-03-22T06:55:47.962Z,16.00
2023-03-22T06:58:40.455Z,17.50
2023-03-22T07:01:27.192Z,14.70
2023-03-22T07:04:14.883Z,15.30
2023-03-22T07:07:02.787Z,16.50
2023-03-22T07:09:49.440Z,16.50
2023-03-22T07:12:36.191Z,16.90
2023-03-22T07:15:27.255Z,15.30
2023-03-22T07:18:28.285Z,16.50
2023-03-22T07:21:15.102Z,17.10
2023-03-22T07:24:02.805Z,17.10
2023-03-22T07:26:50.987Z,16.10
2023-03-22T07:29:39.662Z,16.30
2023-03-22T07:32:26.626Z,15.20
2023-03-22T07:35:39.111Z,16.40
2023-03-22T07:38:28.444Z,16.00
2023-03-22T07:41:14.873Z,14.90
2023-03-22T07:44:18.001Z,13.80
2023-03-22T07:47:39.481Z,14.00
2023-03-22T07:50:39.435Z,15.20
2023-03-22T07:53:26.438Z,14.40
2023-03-22T07:56:13.105Z,14.90
2023-03-22T07:58:59.976Z,13.50
2023-03-22T08:01:46.755Z,14.20
2023-03-22T08:04:46.438Z,15.50
2023-03-22T08:07:41.924Z,15.60
2023-03-22T08:10:31.119Z,14.20
2023-03-22T08:13:17.748Z,15.00
2023-03-22T08:16:05.740Z,14.20
2023-03-22T08:18:52.332Z,13.60
2023-03-22T08:21:39.800Z,13.20
2023-03-22T08:24:29.206Z,14.40
2023-03-22T08:27:24.928Z,14.80
2023-03-22T08:30:12.557Z,12.70
2023-03-22T08:32:59.224Z,14.60
2023-03-22T08:35:46.521Z,14.70
2023-03-22T08:38:33.400Z,12.80
2023-03-22T08:41:19.848Z,13.40
2023-03-22T08:44:06.645Z,13.80
2023-03-22T08:46:54.638Z,12.90
2023-03-22T08:49:41.502Z,14.10
2023-03-22T08:52:33.827Z,13.40
2023-03-22T08:55:24.263Z,12.40
2023-03-22T08:58:28.710Z,12.60
2023-03-22T09:01:38.504Z,11.40
2023-03-22T09:04:27.219Z,10.70
2023-03-22T09:07:14.129Z,10.10
2023-03-22T09:10:01.014Z,10.50
2023-03-22T09:12:48.398Z,10.20
2023-03-22T09:15:35.278Z,10.80
2023-03-22T09:18:28.493Z,8.50
2023-03-22T09:21:17.483Z,8.10
2023-03-22T09:24:17.718Z,8.30
2023-03-22T09:27:07.857Z,8.60
2023-03-22T09:29:54.949Z,7.90
2023-03-22T09:32:41.720Z,6.50
2023-03-22T09:35:30.426Z,6.50
2023-03-22T09:38:21.361Z,8.50
2023-03-22T09:41:20.637Z,7.80
2023-03-22T09:44:21.823Z,7.70
2023-03-22T09:47:17.277Z,7.00
2023-03-22T09:50:15.616Z,9.10
2023-03-22T09:53:02.244Z,8.20
2023-03-22T09:55:57.161Z,8.40
2023-03-22T09:59:04.184Z,8.20
2023-03-22T10:02:01.269Z,8.00
2023-03-22T10:05:31.274Z,7.60
2023-03-22T10:08:22.767Z,7.40
2023-03-22T10:11:34.237Z,7.90
2023-03-22T10:14:44.386Z,7.90
2023-03-22T10:17:31.371Z,8.10
2023-03-22T10:21:08.795Z,8.50
2023-03-22T10:24:16.645Z,7.20
2023-03-22T10:27:12.862Z,8.20
2023-03-22T10:30:23.913Z,8.40
2023-03-22T10:33:24.604Z,8.50
2023-03-22T10:36:14.397Z,8.60
2023-03-22T10:39:38.508Z,8.20
2023-03-22T10:42:29.890Z,8.20
2023-03-22T10:45:16.503Z,8.90
2023-03-22T10:48:19.130Z,8.10
2023-03-22T10:51:07.114Z,8.00
2023-03-22T10:53:57.536Z,7.90
2023-03-22T10:56:45.106Z,8.00
2023-03-22T10:59:51.614Z,7.70
2023-03-22T11:02:52.841Z,7.70
2023-03-22T11:05:39.534Z,7.40
2023-03-22T11:08:25.953Z,7.40
2023-03-22T11:11:29.469Z,8.10
2023-03-22T11:14:43.246Z,7.40
2023-03-22T11:17:30.532Z,7.30
2023-03-22T11:20:19.249Z,7.50
2023-03-22T11:23:06.427Z,8.00
2023-03-22T11:25:58.744Z,6.90
2023-03-22T11:28:50.583Z,7.10
2023-03-22T11:31:57.994Z,8.20
2023-03-22T11:34:45.432Z,6.50
2023-03-22T11:37:31.696Z,8.20
2023-03-22T11:40:34.979Z,8.00
2023-03-22T11:43:27.250Z,7.70
2023-03-22T11:46:18.721Z,8.20
2023-03-22T11:49:13.962Z,7.60
2023-03-22T11:52:10.560Z,7.00
2023-03-22T11:55:00.376Z,7.20
2023-03-22T11:57:48.597Z,6.70
2023-03-22T12:00:39.389Z,4.00
2023-03-22T12:03:35.529Z,6.80
2023-03-22T12:06:28.955Z,7.90
2023-03-22T12:09:48.432Z,8.00
2023-03-22T12:12:42.194Z,7.60
2023-03-22T12:15:36.934Z,8.10
2023-03-22T12:18:48.265Z,7.00
2023-03-22T12:21:34.890Z,7.50
2023-03-22T12:24:31.824Z,7.20
2023-03-22T12:27:33.644Z,6.90
2023-03-22T12:30:27.879Z,7.50
2023-03-22T12:33:50.975Z,7.50
2023-03-22T12:36:46.539Z,8.20
2023-03-22T12:40:01.416Z,7.30
2023-03-22T12:43:11.037Z,8.60
2023-03-22T12:46:01.432Z,9.30
2023-03-22T12:49:10.539Z,8.60
2023-03-22T12:52:13.475Z,8.40
2023-03-22T12:55:02.287Z,8.00
2023-03-22T12:57:51.830Z,7.20
2023-03-22T13:01:00.615Z,8.50
2023-03-22T13:03:54.177Z,8.30
2023-03-22T13:06:45.856Z,7.90
2023-03-22T13:09:41.894Z,8.70
2023-03-22T13:12:32.483Z,8.50
2023-03-22T13:15:41.746Z,8.40
2023-03-22T13:18:35.817Z,8.70
2023-03-22T13:21:47.888Z,9.70
2023-03-22T13:24:34.384Z,8.50
2023-03-22T13:27:20.910Z,8.90
2023-03-22T13:30:32.404Z,8.90
2023-03-22T13:33:27.979Z,9.00
2023-03-22T13:36:25.440Z,9.50
2023-03-22T13:39:16.441Z,8.70
2023-03-22T13:42:18.201Z,10.90
2023-03-22T13:45:32.817Z,9.20
2023-03-22T13:48:43.647Z,9.40
2023-03-22T13:51:32.637Z,9.00
2023-03-22T13:54:30.311Z,9.70
2023-03-22T13:57:45.801Z,9.20
2023-03-22T14:00:38.227Z,8.30
2023-03-22T14:03:36.808Z,9.50
2023-03-22T14:06:33.186Z,8.40
2023-03-22T14:09:39.145Z,9.10
2023-03-22T14:13:13.288Z,8.60
2023-03-22T14:16:21.196Z,8.10
2023-03-22T14:19:20.509Z,7.90
